Time;durP1;ratioP1;P1;durP2;ratioP2;P2;SDS_P1;SDS_P2;PMS_P1;PMS_P2;Temp;Humidity;BMP_temperature;BMP_pressure;BME280_temperature;BME280_humidity;BME280_pressure;Samples;Min_cycle;Max_cycle;Signal;HPM_P1;HPM_P2
2022/07/20 00:01:52;;;;;;;3.63;2.60;;;;;;;26.60;45.27;101257.03;5083877;28;20029;-59
2022/07/20 00:04:17;;;;;;;3.88;2.60;;;;;;;26.60;45.18;101252.41;5085079;28;20029;-59
2022/07/20 00:06:42;;;;;;;3.55;2.70;;;;;;;26.64;44.98;101256.38;5083890;28;20024;-59
2022/07/20 00:11:51;;;;;;;3.83;2.47;;;;;;;26.61;44.84;101251.34;5085103;28;20027;-59
2022/07/20 00:14:17;;;;;;;3.92;2.35;;;;;;;26.61;45.05;101243.16;5083942;28;20059;-58
2022/07/20 00:16:42;;;;;;;3.40;2.13;;;;;;;26.62;44.62;101250.28;5069336;28;20087;-60
2022/07/20 00:19:07;;;;;;;3.75;2.35;;;;;;;26.62;44.79;101249.44;5065265;28;20029;-59
2022/07/20 00:21:33;;;;;;;5.75;2.67;;;;;;;26.62;44.42;101252.16;5063504;28;20029;-59
2022/07/20 00:23:58;;;;;;;3.97;2.30;;;;;;;26.59;44.57;101239.81;5063108;28;20021;-59
2022/07/20 00:26:24;;;;;;;3.95;2.35;;;;;;;26.62;44.24;101247.56;5064165;28;20359;-59
2022/07/20 00:28:52;;;;;;;4.18;2.70;;;;;;;26.62;44.26;101247.56;5063738;28;20041;-59
2022/07/20 00:31:18;;;;;;;2.70;2.25;;;;;;;26.59;44.35;101242.53;5065078;28;20025;-59
2022/07/20 00:33:46;;;;;;;4.00;2.40;;;;;;;26.61;44.13;101243.16;5064602;28;20129;-58
2022/07/20 00:36:12;;;;;;;3.72;2.50;;;;;;;26.60;43.91;101246.94;5064772;28;20083;-59
2022/07/20 00:38:37;;;;;;;2.80;2.20;;;;;;;26.62;43.87;101252.16;5063753;28;20029;-59
2022/07/20 00:41:02;;;;;;;5.18;2.30;;;;;;;26.61;43.75;101245.06;5064994;28;20244;-59
2022/07/20 00:43:28;;;;;;;4.60;2.78;;;;;;;26.60;43.52;101243.38;5064486;28;20569;-59
2022/07/20 00:45:53;;;;;;;3.80;2.58;;;;;;;26.60;43.33;101240.66;5065085;28;20031;-59
2022/07/20 00:48:18;;;;;;;4.60;2.28;;;;;;;26.59;43.23;101237.09;5063579;28;20037;-59
2022/07/20 00:50:43;;;;;;;3.85;2.28;;;;;;;26.59;43.54;101242.53;5065095;28;20025;-59
2022/07/20 00:53:09;;;;;;;2.50;2.30;;;;;;;26.40;43.29;101205.19;5063026;28;20111;-59
2022/07/20 00:55:35;;;;;;;3.88;2.72;;;;;;;26.58;43.38;101235.38;5047071;28;20021;-58
2022/07/20 00:58:01;;;;;;;3.60;2.22;;;;;;;26.58;43.28;101234.56;5063488;28;20021;-58
2022/07/20 01:00:26;;;;;;;5.03;2.47;;;;;;;26.48;43.25;101218.63;5063441;28;20071;-59
2022/07/20 01:02:51;;;;;;;2.97;2.10;;;;;;;26.57;43.22;101232.88;5068929;28;20020;-59
2022/07/20 01:05:17;;;;;;;3.35;2.28;;;;;;;26.57;43.45;101230.16;5078577;28;20024;-59
2022/07/20 01:07:47;;;;;;;4.20;2.55;;;;;;;26.54;42.99;101227.84;5066019;28;20056;-59
2022/07/20 01:10:13;;;;;;;3.28;2.50;;;;;;;26.55;43.22;101226.78;5066246;28;20039;-60
2022/07/20 01:12:42;;;;;;;3.92;2.83;;;;;;;26.54;43.34;101236.03;5083035;28;20062;-59
2022/07/20 01:15:08;;;;;;;4.68;2.30;;;;;;;26.56;43.28;101233.94;5083496;28;20397;-59
2022/07/20 01:17:33;;;;;;;3.70;2.40;;;;;;;26.53;43.20;101228.91;5084870;28;20024;-59
2022/07/20 01:19:58;;;;;;;2.65;2.40;;;;;;;26.36;42.92;101196.59;5071761;28;20036;-58
2022/07/20 01:22:24;;;;;;;3.80;2.40;;;;;;;26.54;43.08;101223.22;5064107;28;20039;-59
2022/07/20 01:24:49;;;;;;;3.47;2.22;;;;;;;26.54;42.90;101225.13;5063366;28;20393;-59
2022/07/20 01:27:14;;;;;;;3.08;2.78;;;;;;;26.54;43.14;101222.41;5063295;28;20021;-59
2022/07/20 01:29:39;;;;;;;3.10;2.15;;;;;;;26.53;43.08;101227.00;5063092;28;20100;-60
2022/07/20 01:32:05;;;;;;;3.35;2.65;;;;;;;26.50;42.91;101218.41;5064444;28;20029;-60
2022/07/20 01:34:30;;;;;;;3.13;2.40;;;;;;;26.52;43.12;101228.06;5062981;28;20469;-60
2022/07/20 01:36:55;;;;;;;8.18;3.08;;;;;;;26.29;42.98;101184.84;5078968;28;20027;-60
2022/07/20 01:39:21;;;;;;;3.38;2.40;;;;;;;26.52;42.91;101221.78;5086895;28;20047;-59
2022/07/20 01:41:52;;;;;;;2.88;2.10;;;;;;;26.52;43.01;101224.50;5087519;28;20024;-59
2022/07/20 01:44:23;;;;;;;2.92;2.63;;;;;;;26.53;42.89;101223.44;5086789;28;20020;-59
2022/07/20 01:46:49;;;;;;;2.95;2.40;;;;;;;26.33;42.88;101188.81;5086543;28;20027;-59
2022/07/20 01:49:19;;;;;;;3.78;2.20;;;;;;;26.39;42.90;101209.81;5088024;28;20020;-59
2022/07/20 01:51:45;;;;;;;3.10;2.45;;;;;;;26.33;42.59;101201.63;5069539;28;20048;-60
2022/07/20 01:54:10;;;;;;;2.97;2.13;;;;;;;26.31;42.57;101190.09;5086637;28;20036;-59
2022/07/20 01:56:36;;;;;;;2.85;1.95;;;;;;;26.31;42.83;101193.66;5086694;28;20025;-59
2022/07/20 01:59:01;;;;;;;3.17;2.47;;;;;;;26.32;42.38;101197.22;5087777;28;20029;-59
2022/07/20 02:01:27;;;;;;;2.95;2.50;;;;;;;26.50;42.43;101226.59;5086211;28;20024;-59
2022/07/20 02:03:52;;;;;;;3.30;2.47;;;;;;;26.48;42.37;101217.81;5087623;28;20029;-59
2022/07/20 02:06:17;;;;;;;3.80;2.75;;;;;;;26.33;42.69;101197.00;5086328;28;20084;-59
2022/07/20 02:08:43;;;;;;;2.60;2.08;;;;;;;26.30;42.50;101194.72;5086452;28;20044;-59
2022/07/20 02:11:08;;;;;;;4.07;2.80;;;;;;;26.49;42.45;101227.66;5073451;28;20029;-59
2022/07/20 02:13:36;;;;;;;3.75;2.55;;;;;;;26.48;42.46;101226.81;5065820;28;20036;-59
2022/07/20 02:16:17;;;;;;;4.15;3.00;;;;;;;26.48;42.40;101232.28;5066320;28;20052;-58
2022/07/20 02:18:48;;;;;;;2.70;2.42;;;;;;;26.46;42.26;101226.19;5066097;28;20079;-58
2022/07/20 02:21:15;;;;;;;3.22;2.38;;;;;;;26.47;42.15;101229.75;5049086;28;20029;-59
2022/07/20 02:23:41;;;;;;;3.00;2.10;;;;;;;26.46;42.19;101217.16;5065626;28;20028;-59
2022/07/20 02:26:06;;;;;;;3.35;2.70;;;;;;;26.22;42.10;101186.75;5066096;28;20039;-59
2022/07/20 02:28:32;;;;;;;7.10;2.70;;;;;;;26.45;42.14;101224.50;5065515;28;20081;-58
2022/07/20 02:30:57;;;;;;;4.20;2.28;;;;;;;26.45;42.55;101220.94;5049201;28;20074;-60
2022/07/20 02:33:22;;;;;;;4.13;2.80;;;;;;;26.44;42.05;101214.66;5066778;28;20025;-59
2022/07/20 02:35:47;;;;;;;3.15;2.47;;;;;;;26.44;42.39;101217.38;5065817;28;20252;-59
2022/07/20 02:38:13;;;;;;;3.53;2.42;;;;;;;26.42;42.35;101220.31;5065530;28;20036;-59
2022/07/20 02:40:38;;;;;;;3.25;2.53;;;;;;;26.44;42.15;101214.66;5048748;28;20021;-59
2022/07/20 02:43:05;;;;;;;3.40;2.58;;;;;;;26.24;42.35;101189.25;5065428;28;20036;-58
2022/07/20 02:45:30;;;;;;;3.28;2.35;;;;;;;26.41;42.11;101217.75;5065709;28;20025;-59
2022/07/20 02:48:02;;;;;;;4.32;2.65;;;;;;;26.41;42.24;101220.50;5064490;28;20044;-59
2022/07/20 02:50:28;;;;;;;4.35;2.95;;;;;;;26.41;42.13;101218.59;5065809;28;20021;-59
2022/07/20 02:52:53;;;;;;;3.65;2.88;;;;;;;26.40;41.96;101214.19;5065070;28;20517;-59
2022/07/20 02:55:18;;;;;;;2.83;2.47;;;;;;;26.22;41.78;101183.19;5066747;28;20031;-59
2022/07/20 02:57:44;;;;;;;4.22;2.80;;;;;;;26.40;42.00;101210.63;5066489;28;20036;-58
2022/07/20 03:00:12;;;;;;;4.97;2.60;;;;;;;26.40;42.00;101211.47;5065639;28;20734;-59
2022/07/20 03:02:37;;;;;;;;;;;;;;;26.39;41.84;101208.97;5066635;28;20179;-60
2022/07/20 03:05:03;;;;;;;4.68;3.13;;;;;;;26.39;41.79;101217.97;5048536;28;20322;-58
2022/07/20 03:07:28;;;;;;;3.25;2.95;;;;;;;26.18;41.68;101188.22;5064545;28;20036;-59
2022/07/20 03:09:53;;;;;;;2.85;2.40;;;;;;;26.36;41.71;101215.66;5067388;28;20033;-58
2022/07/20 03:12:19;;;;;;;4.63;2.83;;;;;;;26.14;41.66;101185.06;5085900;28;20016;-59
2022/07/20 03:14:44;;;;;;;4.43;2.40;;;;;;;26.35;41.75;101219.47;5086088;28;20063;-58
2022/07/20 03:17:09;;;;;;;3.92;2.80;;;;;;;26.36;41.59;101209.38;5086127;28;20075;-59
2022/07/20 03:19:35;;;;;;;4.32;2.45;;;;;;;26.35;41.77;101218.63;5086276;28;20489;-61
2022/07/20 03:22:00;;;;;;;3.55;2.65;;;;;;;26.34;41.77;101211.50;5085669;28;20021;-59
2022/07/20 03:24:25;;;;;;;3.75;3.03;;;;;;;26.35;41.75;101216.72;5086005;28;20046;-54
2022/07/20 03:26:50;;;;;;;3.75;2.92;;;;;;;26.31;41.41;101211.91;5086300;28;20021;-59
2022/07/20 03:29:16;;;;;;;3.08;2.33;;;;;;;26.33;41.46;101207.91;5084982;28;20465;-60
2022/07/20 03:31:41;;;;;;;4.13;2.45;;;;;;;26.14;41.81;101186.97;5085981;28;20017;-60
2022/07/20 03:34:06;;;;;;;3.53;2.47;;;;;;;26.33;41.30;101216.09;5085677;28;20020;-59
2022/07/20 03:36:31;;;;;;;2.95;2.58;;;;;;;26.33;41.79;101217.97;5084621;28;20532;-60
2022/07/20 03:38:57;;;;;;;2.78;2.42;;;;;;;26.31;41.58;101215.47;5086052;28;20363;-60
2022/07/20 03:41:22;;;;;;;3.85;2.80;;;;;;;26.31;41.73;101220.09;5085744;28;20107;-59
2022/07/20 03:43:49;;;;;;;3.92;2.70;;;;;;;26.26;41.54;101200.81;5085275;28;20145;-60
2022/07/20 03:46:17;;;;;;;2.90;2.55;;;;;;;26.32;41.56;101217.16;5084706;28;20032;-60
2022/07/20 03:48:43;;;;;;;2.83;2.30;;;;;;;26.29;41.59;101212.09;5067933;28;20052;-59
2022/07/20 03:51:08;;;;;;;3.67;2.70;;;;;;;26.30;41.51;101215.69;5085654;28;20028;-60
2022/07/20 03:53:34;;;;;;;3.45;2.70;;;;;;;26.09;41.42;101186.75;5085211;28;20086;-60
2022/07/20 03:55:59;;;;;;;3.40;2.60;;;;;;;26.30;41.47;101223.88;5085620;28;20028;-59
2022/07/20 03:58:25;;;;;;;3.55;2.70;;;;;;;26.28;41.12;101229.50;5083941;28;20116;-60
2022/07/20 04:00:50;;;;;;;3.67;2.33;;;;;;;26.29;41.21;101236.63;5085376;28;20032;-60
2022/07/20 04:03:15;;;;;;;3.75;2.70;;;;;;;26.24;41.35;101222.81;5085024;28;20043;-60
2022/07/20 04:05:40;;;;;;;2.63;2.40;;;;;;;26.26;41.10;101228.91;5084297;28;20171;-59
2022/07/20 04:08:08;;;;;;;4.60;2.72;;;;;;;26.28;40.88;101234.97;5085062;28;20085;-60
2022/07/20 04:10:36;;;;;;;3.42;2.50;;;;;;;26.25;40.95;101232.69;5076375;28;20077;-60
2022/07/20 04:13:05;;;;;;;3.08;2.63;;;;;;;26.06;41.02;101212.53;5065027;28;20502;-60
2022/07/20 04:15:31;;;;;;;3.47;2.90;;;;;;;26.00;41.10;101212.53;5064077;28;20078;-60
2022/07/20 04:17:56;;;;;;;4.18;2.58;;;;;;;26.06;40.79;101219.88;5065129;28;20464;-60
2022/07/20 04:20:21;;;;;;;4.40;2.67;;;;;;;26.20;40.88;101246.06;5064033;28;20035;-60
2022/07/20 04:22:47;;;;;;;3.63;2.72;;;;;;;26.23;40.96;101259.28;5064542;28;20033;-59
2022/07/20 04:25:12;;;;;;;3.65;2.65;;;;;;;26.25;40.79;101268.13;5064180;28;20429;-59
2022/07/20 04:27:38;;;;;;;3.28;2.85;;;;;;;26.25;40.75;101273.56;5065190;28;20074;-60
2022/07/20 04:30:03;;;;;;;3.88;2.50;;;;;;;26.26;40.90;101282.59;5063970;28;20310;-59
2022/07/20 04:32:29;;;;;;;3.25;2.83;;;;;;;26.25;40.74;101287.19;5063709;28;20024;-59
2022/07/20 04:34:54;;;;;;;3.28;2.60;;;;;;;26.25;40.93;101286.34;5064996;28;20060;-58
2022/07/20 04:37:19;;;;;;;4.05;2.97;;;;;;;26.25;40.85;101289.06;5063515;28;20053;-59
2022/07/20 04:39:45;;;;;;;4.32;3.05;;;;;;;26.20;40.77;101276.06;5065304;28;20032;-59
2022/07/20 04:42:10;;;;;;;3.42;2.78;;;;;;;26.24;40.57;101290.94;5064612;28;20032;-59
2022/07/20 04:44:35;;;;;;;4.35;3.10;;;;;;;26.25;40.89;101292.66;5063698;28;20041;-59
2022/07/20 04:47:00;;;;;;;3.85;2.95;;;;;;;26.06;40.93;101264.31;5063694;28;20052;-60
2022/07/20 04:49:26;;;;;;;3.67;2.85;;;;;;;26.25;40.83;101297.22;5064807;28;20421;-59
2022/07/20 04:51:51;;;;;;;4.20;2.83;;;;;;;26.24;40.70;101301.84;5063342;28;20061;-59
2022/07/20 04:54:18;;;;;;;8.05;3.33;;;;;;;26.23;40.55;101302.91;5063410;28;20106;-60
2022/07/20 04:56:44;;;;;;;3.83;3.00;;;;;;;26.25;40.70;101305.41;5063597;28;20024;-59
2022/07/20 04:59:09;;;;;;;4.60;3.08;;;;;;;26.03;40.66;101272.06;5063571;28;20028;-60
2022/07/20 05:01:34;;;;;;;3.45;2.70;;;;;;;26.21;40.80;101305.00;5063300;28;20393;-59
2022/07/20 05:04:00;;;;;;;2.92;2.63;;;;;;;26.04;40.62;101276.44;5063911;28;20025;-59
2022/07/20 05:06:25;;;;;;;2.95;2.55;;;;;;;26.23;40.50;101319.25;5060944;28;20090;-58
2022/07/20 05:08:50;;;;;;;3.30;3.00;;;;;;;26.24;40.88;101333.72;5045140;28;20032;-59
2022/07/20 05:11:15;;;;;;;4.22;2.92;;;;;;;26.24;40.71;101339.19;5073853;28;20373;-59
2022/07/20 05:13:41;;;;;;;4.07;2.50;;;;;;;26.23;40.53;101346.53;5088278;28;20054;-60
2022/07/20 05:16:07;;;;;;;3.50;2.40;;;;;;;26.24;40.47;101350.06;5087361;28;20085;-59
2022/07/20 05:18:32;;;;;;;5.45;3.13;;;;;;;26.23;40.70;101351.97;5070156;28;20020;-60
2022/07/20 05:20:58;;;;;;;3.42;2.47;;;;;;;26.23;40.88;101349.25;5087306;28;20072;-60
2022/07/20 05:23:23;;;;;;;4.93;2.53;;;;;;;26.23;40.68;101343.78;5087737;28;20095;-59
2022/07/20 05:25:49;;;;;;;4.35;3.28;;;;;;;26.23;40.74;101353.84;5088567;28;20035;-58
2022/07/20 05:28:18;;;;;;;9.43;3.35;;;;;;;26.00;40.99;101322.38;5087998;28;20056;-60
2022/07/20 05:30:43;;;;;;;;;;;;;;;26.23;40.74;101357.41;5088667;28;20020;-60
2022/07/20 05:33:08;;;;;;;4.15;2.88;;;;;;;26.03;40.98;101330.13;5086509;28;20258;-59
2022/07/20 05:35:34;;;;;;;4.50;3.03;;;;;;;26.22;40.79;101371.28;5086509;28;20032;-60
2022/07/20 05:38:00;;;;;;;3.60;2.67;;;;;;;25.99;40.79;101323.41;5087582;28;20026;-59
2022/07/20 05:40:25;;;;;;;3.90;2.90;;;;;;;26.22;40.84;101363.09;5088041;28;20020;-60
2022/07/20 05:42:51;;;;;;;3.88;3.30;;;;;;;26.15;40.67;101368.50;5087600;28;20107;-61
2022/07/20 05:45:16;;;;;;;5.63;3.38;;;;;;;26.19;41.14;101375.22;5086830;28;20028;-60
2022/07/20 05:47:42;;;;;;;4.57;3.45;;;;;;;26.00;40.77;101335.13;5087297;28;20047;-59
2022/07/20 05:50:07;;;;;;;4.05;2.90;;;;;;;26.02;41.17;101339.34;5086699;28;20027;-59
2022/07/20 05:52:33;;;;;;;3.08;2.75;;;;;;;25.99;40.94;101331.56;5087217;28;20055;-59
2022/07/20 05:54:58;;;;;;;3.58;3.20;;;;;;;26.22;40.95;101377.56;5086547;28;20115;-59
2022/07/20 05:57:23;;;;;;;4.25;3.35;;;;;;;26.22;41.31;101382.16;5087825;28;20055;-60
2022/07/20 05:59:49;;;;;;;5.10;3.58;;;;;;;26.18;41.14;101365.38;5087678;28;20080;-60
2022/07/20 06:02:15;;;;;;;4.20;3.80;;;;;;;26.24;41.19;101377.34;5086056;28;20035;-60
2022/07/20 06:04:40;;;;;;;5.60;3.63;;;;;;;26.04;41.50;101352.75;5087409;28;20025;-60
2022/07/20 06:07:05;;;;;;;4.70;4.03;;;;;;;26.23;41.50;101390.13;5086016;28;20104;-59
2022/07/20 06:09:30;;;;;;;5.30;3.85;;;;;;;26.04;41.49;101348.16;5087496;28;20050;-60
2022/07/20 06:11:55;;;;;;;5.40;4.05;;;;;;;26.24;41.70;101385.50;5067957;28;20060;-60
2022/07/20 06:14:21;;;;;;;5.30;4.40;;;;;;;26.04;41.91;101359.06;5067241;28;20040;-59
2022/07/20 06:16:46;;;;;;;7.47;4.68;;;;;;;26.24;41.67;101380.06;5067403;28;20029;-59
2022/07/20 06:19:11;;;;;;;6.38;4.68;;;;;;;26.24;41.79;101394.53;5065735;28;20047;-59
2022/07/20 06:21:37;;;;;;;7.35;4.47;;;;;;;26.24;41.96;101386.34;5064606;28;20039;-59
2022/07/20 06:24:03;;;;;;;6.28;4.45;;;;;;;26.25;42.14;101381.72;5066574;28;20052;-59
2022/07/20 06:26:28;;;;;;;7.13;5.35;;;;;;;26.24;41.97;101380.91;5067051;28;20025;-59
2022/07/20 06:28:53;;;;;;;7.00;4.95;;;;;;;26.26;42.08;101391.63;5065321;28;20040;-60
2022/07/20 06:31:19;;;;;;;7.30;5.15;;;;;;;26.27;42.41;101393.28;5067045;28;20025;-60
2022/07/20 06:33:44;;;;;;;6.93;5.40;;;;;;;26.27;42.66;101390.56;5066520;28;20083;-59
2022/07/20 06:36:09;;;;;;;8.02;5.72;;;;;;;26.27;42.65;101385.13;5065746;28;20115;-59
2022/07/20 06:38:34;;;;;;;8.23;6.00;;;;;;;26.27;42.63;101388.66;5065031;28;20025;-59
2022/07/20 06:41:01;;;;;;;9.80;6.38;;;;;;;26.24;42.92;101389.06;5065590;28;20029;-59
2022/07/20 06:43:26;;;;;;;7.85;6.15;;;;;;;26.24;42.91;101405.44;5066440;28;20036;-59
2022/07/20 06:45:51;;;;;;;9.60;6.68;;;;;;;26.27;43.07;101415.94;5065690;28;20033;-60
2022/07/20 06:48:16;;;;;;;8.02;7.03;;;;;;;26.29;43.20;101426.63;5065246;28;20064;-59
2022/07/20 06:50:42;;;;;;;10.30;7.15;;;;;;;26.29;43.42;101443.81;5066592;28;20085;-58
2022/07/20 06:53:07;;;;;;;10.05;7.22;;;;;;;26.29;43.45;101446.53;5065934;28;20035;-59
2022/07/20 06:55:32;;;;;;;9.70;7.70;;;;;;;26.29;43.70;101460.16;5066535;28;20485;-59
2022/07/20 06:57:57;;;;;;;11.00;7.75;;;;;;;26.30;43.83;101455.59;5065315;28;20025;-61
2022/07/20 07:00:23;;;;;;;9.70;7.95;;;;;;;26.32;43.99;101476.13;5066108;28;20055;-59
2022/07/20 07:02:48;;;;;;;10.00;8.20;;;;;;;26.06;44.01;101430.53;5066507;28;20044;-59
2022/07/20 07:05:14;;;;;;;10.27;8.98;;;;;;;26.31;44.37;101479.91;5066124;28;20032;-59
2022/07/20 07:07:39;;;;;;;12.95;9.45;;;;;;;26.00;44.33;101430.50;5064705;28;20466;-59
2022/07/20 07:10:05;;;;;;;11.85;9.90;;;;;;;26.33;44.62;101490.59;5068608;28;20028;-59
2022/07/20 07:12:30;;;;;;;14.05;10.27;;;;;;;26.18;44.61;101466.22;5084722;28;20023;-60
2022/07/20 07:14:55;;;;;;;17.63;10.10;;;;;;;26.34;44.98;101495.03;5084678;28;20025;-60
2022/07/20 07:17:21;;;;;;;15.18;10.82;;;;;;;26.14;45.08;101465.78;5086154;28;20031;-59
2022/07/20 07:19:46;;;;;;;14.63;11.45;;;;;;;26.36;45.17;101503.81;5085723;28;20401;-60
2022/07/20 07:22:11;;;;;;;14.63;11.82;;;;;;;26.35;45.05;101510.34;5085701;28;20020;-59
2022/07/20 07:24:36;;;;;;;14.60;12.20;;;;;;;26.13;45.20;101474.19;5067818;28;20463;-60
2022/07/20 07:27:02;;;;;;;13.45;11.73;;;;;;;26.17;45.25;101489.09;5084744;28;20032;-60
2022/07/20 07:29:27;;;;;;;15.77;12.65;;;;;;;26.13;45.57;101485.91;5084660;28;20054;-60
2022/07/20 07:31:58;;;;;;;17.10;13.13;;;;;;;26.38;45.56;101521.69;5085945;28;20021;-59
2022/07/20 07:34:24;;;;;;;17.55;13.90;;;;;;;26.39;45.43;101526.06;5083860;28;20023;-60
2022/07/20 07:36:49;;;;;;;14.00;12.48;;;;;;;26.40;45.25;101538.66;5084105;28;20021;-60
2022/07/20 07:39:14;;;;;;;16.45;13.20;;;;;;;26.40;45.28;101532.38;5085756;28;20031;-60
2022/07/20 07:41:40;;;;;;;15.13;12.65;;;;;;;26.40;45.13;101544.09;5067256;28;20493;-60
2022/07/20 07:44:05;;;;;;;16.02;12.73;;;;;;;26.41;45.43;101545.78;5085434;28;20020;-60
2022/07/20 07:46:30;;;;;;;14.95;12.90;;;;;;;26.42;45.21;101554.81;5085538;28;20024;-60
2022/07/20 07:48:55;;;;;;;15.30;12.93;;;;;;;26.41;45.37;101559.41;5085510;28;20048;-59
2022/07/20 07:51:21;;;;;;;19.15;13.93;;;;;;;26.43;45.25;101560.06;5085727;28;20524;-59
2022/07/20 07:53:46;;;;;;;14.48;12.85;;;;;;;26.26;45.50;101530.63;5083621;28;20040;-60
2022/07/20 07:56:12;;;;;;;15.60;13.55;;;;;;;26.45;45.43;101559.06;5085520;28;20036;-60
2022/07/20 07:58:38;;;;;;;15.57;13.93;;;;;;;26.30;45.18;101542.81;5083883;28;20024;-60
2022/07/20 08:01:03;;;;;;;16.42;14.68;;;;;;;26.45;45.37;101565.34;5084311;28;20035;-60
2022/07/20 08:03:28;;;;;;;16.98;14.38;;;;;;;26.46;45.40;101566.19;5084902;28;20024;-59
2022/07/20 08:05:54;;;;;;;16.48;14.40;;;;;;;26.26;45.28;101538.81;5084187;28;20036;-60
2022/07/20 08:08:19;;;;;;;16.27;14.18;;;;;;;26.47;45.29;101581.53;5085117;28;20025;-59
2022/07/20 08:10:45;;;;;;;17.90;13.98;;;;;;;26.24;45.27;101540.88;5074302;28;20074;-59
2022/07/20 08:13:10;;;;;;;16.85;13.85;;;;;;;26.48;45.33;101589.50;5046938;28;20037;-60
2022/07/20 08:15:36;;;;;;;16.10;13.80;;;;;;;26.49;45.34;101604.81;5065006;28;20029;-59
2022/07/20 08:18:03;;;;;;;16.77;13.57;;;;;;;26.28;45.48;101569.44;5065287;28;20052;-59
2022/07/20 08:20:28;;;;;;;17.95;14.85;;;;;;;26.51;45.26;101597.28;5064057;28;20021;-59
2022/07/20 08:22:53;;;;;;;17.35;14.45;;;;;;;26.49;45.38;101596.63;5064927;28;20462;-60
2022/07/20 08:25:20;;;;;;;18.35;15.10;;;;;;;26.53;45.19;101594.34;5063607;28;20017;-59
2022/07/20 08:27:45;;;;;;;15.27;13.70;;;;;;;26.54;45.39;101602.28;5046877;28;20029;-61
2022/07/20 08:30:11;;;;;;;16.98;14.43;;;;;;;26.54;45.42;101605.03;5063579;28;20085;-60
2022/07/20 08:32:36;;;;;;;14.88;13.38;;;;;;;26.55;45.49;101612.19;5064923;28;20029;-59
2022/07/20 08:35:02;;;;;;;18.42;16.15;;;;;;;26.56;45.43;101622.03;5064844;28;20025;-59
2022/07/20 08:37:29;;;;;;;16.83;14.95;;;;;;;26.37;45.36;101595.47;5064763;28;20028;-59
2022/07/20 08:39:54;;;;;;;16.60;14.80;;;;;;;26.36;45.51;101585.63;5047313;28;20112;-59
2022/07/20 08:42:20;;;;;;;18.50;16.52;;;;;;;26.58;45.33;101625.41;5063558;28;20063;-59
2022/07/20 08:44:45;;;;;;;18.48;15.75;;;;;;;26.57;45.52;101622.88;5063477;28;20036;-59
2022/07/20 08:47:11;;;;;;;19.02;17.10;;;;;;;26.37;45.53;101584.56;5068719;28;20063;-59
2022/07/20 08:49:48;;;;;;;19.42;16.55;;;;;;;26.61;45.29;101635.91;5068760;28;20081;-60
2022/07/20 08:52:14;;;;;;;21.90;17.25;;;;;;;26.40;45.08;101606.81;5050699;28;20013;-59
2022/07/20 08:54:39;;;;;;;19.42;16.13;;;;;;;26.62;45.23;101634.03;5068616;28;20020;-59
2022/07/20 08:57:16;;;;;;;16.38;14.77;;;;;;;26.63;45.34;101635.69;5069031;28;20534;-58
2022/07/20 08:59:42;;;;;;;17.00;14.98;;;;;;;26.40;45.32;101589.63;5068673;28;20397;-59
2022/07/20 09:02:08;;;;;;;19.70;16.42;;;;;;;26.63;45.57;101636.56;5068590;28;20108;-59
2022/07/20 09:04:54;;;;;;;19.75;17.65;;;;;;;26.46;45.35;101612.53;5067069;28;20029;-59
2022/07/20 09:07:37;;;;;;;19.30;17.40;;;;;;;26.63;45.43;101628.38;5068451;28;20021;-59
2022/07/20 09:10:12;;;;;;;17.92;16.08;;;;;;;26.63;45.46;101622.94;5070870;28;20029;-59
2022/07/20 09:12:58;;;;;;;17.95;16.02;;;;;;;26.63;45.83;101622.94;5087091;28;20025;-60
2022/07/20 09:15:34;;;;;;;17.77;15.98;;;;;;;26.64;45.33;101631.94;5088333;28;20033;-60
2022/07/20 09:18:17;;;;;;;19.88;17.60;;;;;;;26.65;45.44;101630.91;5088340;28;20583;-60
2022/07/20 09:20:43;;;;;;;17.67;15.77;;;;;;;26.65;45.37;101641.81;5088127;28;20036;-60
2022/07/20 09:23:12;;;;;;;20.08;17.83;;;;;;;26.67;45.68;101648.72;5088020;28;20413;-60
2022/07/20 09:25:49;;;;;;;18.77;16.83;;;;;;;26.68;45.49;101641.41;5086625;28;20025;-59
2022/07/20 09:28:14;;;;;;;19.00;17.00;;;;;;;26.50;45.47;101606.47;5087123;28;20046;-59
2022/07/20 09:30:48;;;;;;;17.88;15.98;;;;;;;26.71;45.42;101631.97;5086916;28;20084;-59
2022/07/20 09:33:14;;;;;;;19.50;15.23;;;;;;;26.70;45.49;101642.03;5087082;28;20031;-58
2022/07/20 09:35:39;;;;;;;16.73;15.13;;;;;;;26.71;45.66;101642.88;5086535;28;20021;-58
2022/07/20 09:38:07;;;;;;;18.50;16.35;;;;;;;26.69;45.55;101632.19;5087539;28;20056;-58
2022/07/20 09:40:43;;;;;;;19.42;16.67;;;;;;;26.72;45.30;101617.25;5086733;28;20024;-59
2022/07/20 09:43:33;;;;;;;16.35;14.65;;;;;;;26.64;45.66;101627.34;5069728;28;20035;-60
2022/07/20 09:46:15;;;;;;;16.50;14.82;;;;;;;26.70;45.39;101635.75;5086613;28;20032;-59
2022/07/20 09:48:46;;;;;;;17.23;14.82;;;;;;;26.72;45.20;101652.72;5086199;28;20049;-59
2022/07/20 09:51:18;;;;;;;16.55;14.27;;;;;;;26.48;45.21;101611.31;5086613;28;20044;-58
2022/07/20 09:53:43;;;;;;;16.25;14.40;;;;;;;26.73;45.32;101649.81;5087148;28;20040;-58
2022/07/20 09:56:09;;;;;;;16.38;13.98;;;;;;;26.74;45.10;101637.03;5086259;28;20024;-58
2022/07/20 09:58:34;;;;;;;14.82;13.23;;;;;;;26.36;45.30;101569.25;5087609;28;20032;-59
2022/07/20 10:01:00;;;;;;;15.50;13.07;;;;;;;26.52;45.38;101585.31;5087795;28;20033;-59
2022/07/20 10:03:26;;;;;;;15.70;13.52;;;;;;;26.55;45.02;101600.41;5087434;28;20028;-59
2022/07/20 10:05:51;;;;;;;14.57;13.13;;;;;;;26.56;44.97;101593.94;5087559;28;20024;-59
2022/07/20 10:08:17;;;;;;;15.40;12.93;;;;;;;26.76;45.20;101619.41;5069071;28;20025;-59
2022/07/20 10:10:42;;;;;;;13.98;12.57;;;;;;;26.56;45.01;101592.03;5060457;28;20013;-59
2022/07/20 10:13:08;;;;;;;14.07;12.48;;;;;;;26.75;45.33;101625.06;5065919;28;20031;-58
2022/07/20 10:15:41;;;;;;;12.52;11.13;;;;;;;26.76;44.93;101635.78;5067212;28;20028;-59
2022/07/20 10:18:07;;;;;;;13.40;12.10;;;;;;;26.76;45.09;101649.44;5066033;28;20029;-58
2022/07/20 10:20:37;;;;;;;13.80;12.07;;;;;;;26.79;45.01;101662.63;5066107;28;20032;-60
2022/07/20 10:23:14;;;;;;;12.55;11.23;;;;;;;26.80;44.96;101664.31;5065523;28;20027;-59
2022/07/20 10:25:41;;;;;;;15.50;11.70;;;;;;;26.74;45.21;101665.13;5066890;28;20028;-59
2022/07/20 10:28:25;;;;;;;12.15;11.05;;;;;;;26.81;45.11;101687.84;5066949;28;20043;-59
2022/07/20 10:30:54;;;;;;;12.57;11.48;;;;;;;26.80;45.12;101680.69;5065633;28;20405;-59
2022/07/20 10:33:21;;;;;;;13.90;11.32;;;;;;;26.59;45.04;101651.66;5065615;28;20028;-59
2022/07/20 10:35:48;;;;;;;15.15;11.98;;;;;;;26.82;45.08;101675.88;5065391;28;20032;-59
2022/07/20 10:38:17;;;;;;;13.15;11.27;;;;;;;26.64;44.84;101645.59;5065152;28;20025;-60
2022/07/20 10:44:21;;;;;;;14.10;10.75;;;;;;;26.85;45.08;101666.47;5065536;28;20101;-59
2022/07/20 10:46:47;;;;;;;13.15;11.20;;;;;;;26.60;45.02;101626.06;5054193;28;20040;-59
2022/07/20 10:49:13;;;;;;;11.93;10.77;;;;;;;26.85;44.86;101661.84;5065504;28;20036;-59
2022/07/20 10:51:38;;;;;;;10.77;9.68;;;;;;;26.85;44.84;101650.94;5065290;28;20021;-59
2022/07/20 10:54:28;;;;;;;10.88;9.88;;;;;;;26.86;44.91;101658.06;5065094;28;20021;-60
2022/07/20 10:56:54;;;;;;;14.43;11.10;;;;;;;26.87;45.03;101664.34;5065403;28;20587;-59
2022/07/20 10:59:19;;;;;;;10.68;9.55;;;;;;;26.88;44.89;101671.50;5065031;28;20037;-59
2022/07/20 11:01:47;;;;;;;10.75;9.65;;;;;;;26.87;44.96;101688.91;5066428;28;20048;-58
2022/07/20 11:04:13;;;;;;;10.65;9.07;;;;;;;26.87;45.02;101706.13;5064739;28;20021;-59
2022/07/20 11:06:40;;;;;;;9.75;8.75;;;;;;;26.88;44.84;101710.53;5064966;28;20025;-59
2022/07/20 11:09:05;;;;;;;10.18;8.80;;;;;;;26.90;45.19;101715.81;5064359;28;20029;-59
2022/07/20 11:11:32;;;;;;;11.55;9.43;;;;;;;26.90;44.96;101719.38;5080494;28;20043;-59
2022/07/20 11:13:58;;;;;;;9.68;8.55;;;;;;;26.90;44.95;101711.19;5084829;28;20024;-60
2022/07/20 11:16:25;;;;;;;9.52;8.57;;;;;;;26.91;45.07;101715.59;5084870;28;20169;-59
2022/07/20 11:18:51;;;;;;;10.85;8.80;;;;;;;26.92;45.05;101703.63;5084600;28;20450;-60
2022/07/20 11:21:17;;;;;;;10.63;8.55;;;;;;;26.65;45.09;101650.81;5084742;28;20025;-60
2022/07/20 11:23:47;;;;;;;9.05;8.20;;;;;;;26.95;44.91;101696.09;5084271;28;20048;-60